Time;durP1;ratioP1;P1;durP2;ratioP2;P2;SDS_P1;SDS_P2;PMS_P1;PMS_P2;Temp;Humidity;BMP_temperature;BMP_pressure;BME280_temperature;BME280_humidity;BME280_pressure;Samples;Min_cycle;Max_cycle;Signal;HPM_P1;HPM_P2
2022/03/21 00:01:56;;;;;;;10.20;6.72;;;;;;;;;;5024754;28;20116;-81
2022/03/21 00:04:24;;;;;;;8.93;6.85;;;;;;;;;;5025128;28;20045;-77
2022/03/21 00:06:51;;;;;;;7.57;6.68;;;;;;;;;;5023533;28;20485;-77
2022/03/21 00:09:18;;;;;;;7.53;6.53;;;;;;;;;;5023748;28;20045;-81
2022/03/21 00:11:46;;;;;;;7.10;6.40;;;;;;;;;;5025046;28;20501;-77
2022/03/21 00:14:13;;;;;;;8.32;6.30;;;;;;;;;;5022930;28;20046;-79
2022/03/21 00:16:41;;;;;;;8.65;6.38;;;;;;;;;;5025217;28;20075;-77
2022/03/21 00:19:09;;;;;;;9.85;6.93;;;;;;;;;;5010111;28;20157;-80
2022/03/21 00:21:36;;;;;;;8.45;7.03;;;;;;;;;;5026394;28;20038;-79
2022/03/21 00:24:04;;;;;;;7.53;6.55;;;;;;;;;;5026550;28;20081;-77
2022/03/21 00:26:32;;;;;;;7.30;6.00;;;;;;;;;;5010077;28;20053;-78
2022/03/21 00:29:02;;;;;;;9.98;6.80;;;;;;;;;;5024875;28;20036;-77
2022/03/21 00:31:29;;;;;;;7.78;6.85;;;;;;;;;;5008316;28;20468;-81
2022/03/21 00:33:57;;;;;;;7.93;6.63;;;;;;;;;;5009061;28;20492;-81
2022/03/21 00:36:24;;;;;;;8.95;6.55;;;;;;;;;;5023848;28;20049;-77
2022/03/21 00:39:12;;;;;;;10.02;5.93;;;;;;;;;;5010362;28;20049;-81
2022/03/21 00:41:41;;;;;;;7.90;6.95;;;;;;;;;;5009540;28;20059;-82
2022/03/21 00:44:08;;;;;;;7.18;6.03;;;;;;;;;;5024066;28;20367;-79
2022/03/21 00:46:36;;;;;;;8.75;7.38;;;;;;;;;;5025230;28;20054;-77
2022/03/21 00:49:04;;;;;;;8.48;6.80;;;;;;;;;;5026776;28;20067;-77
2022/03/21 00:51:31;;;;;;;7.60;6.20;;;;;;;;;;5010921;28;20145;-76
2022/03/21 00:53:58;;;;;;;7.57;6.72;;;;;;;;;;4994902;28;20076;-81
2022/03/21 00:56:26;;;;;;;7.75;6.47;;;;;;;;;;5010056;28;20513;-77
2022/03/21 00:58:53;;;;;;;12.25;7.18;;;;;;;;;;5010858;28;20128;-79
2022/03/21 01:01:21;;;;;;;9.50;6.35;;;;;;;;;;5033064;28;20109;-78
2022/03/21 01:03:48;;;;;;;7.68;6.05;;;;;;;;;;5026564;28;20057;-79
2022/03/21 01:06:16;;;;;;;7.68;6.88;;;;;;;;;;5027555;28;20035;-80
2022/03/21 01:08:43;;;;;;;7.38;6.10;;;;;;;;;;4994539;28;20052;-77
2022/03/21 01:11:10;;;;;;;8.07;6.40;;;;;;;;;;5026688;28;20132;-76
2022/03/21 01:13:41;;;;;;;8.60;6.50;;;;;;;;;;5026394;28;20133;-77
2022/03/21 01:16:09;;;;;;;8.25;6.97;;;;;;;;;;5026627;28;20041;-78
2022/03/21 01:18:37;;;;;;;8.20;6.25;;;;;;;;;;5023001;28;20533;-75
2022/03/21 01:21:04;;;;;;;6.88;5.60;;;;;;;;;;5026121;28;20033;-78
2022/03/21 01:23:31;;;;;;;8.35;6.35;;;;;;;;;;5026800;28;20045;-75
2022/03/21 01:25:59;;;;;;;7.40;6.05;;;;;;;;;;5009481;28;20045;-77
2022/03/21 01:28:26;;;;;;;7.82;6.70;;;;;;;;;;5025951;28;20132;-78
2022/03/21 01:30:53;;;;;;;8.52;6.93;;;;;;;;;;5026391;28;20056;-80
2022/03/21 01:33:21;;;;;;;6.45;5.80;;;;;;;;;;5026680;28;20133;-80
2022/03/21 01:35:48;;;;;;;6.82;5.85;;;;;;;;;;5026071;28;20080;-76
2022/03/21 01:38:16;;;;;;;9.88;7.13;;;;;;;;;;5009877;28;20050;-78
2022/03/21 01:40:43;;;;;;;8.25;6.93;;;;;;;;;;5006967;28;20560;-79
2022/03/21 01:43:11;;;;;;;7.47;5.97;;;;;;;;;;5008400;28;20069;-81
2022/03/21 01:45:39;;;;;;;6.68;5.93;;;;;;;;;;5020627;28;20048;-76
2022/03/21 01:48:07;;;;;;;9.50;6.10;;;;;;;;;;5012911;28;20038;-78
2022/03/21 01:50:37;;;;;;;7.50;6.28;;;;;;;;;;5028372;28;20046;-81
2022/03/21 01:55:51;;;;;;;6.85;5.80;;;;;;;;;;5028689;28;20438;-77
2022/03/21 01:58:19;;;;;;;8.60;6.30;;;;;;;;;;4997093;28;20552;-78
2022/03/21 02:00:46;;;;;;;7.72;5.80;;;;;;;;;;5028924;28;20132;-77
2022/03/21 02:03:14;;;;;;;8.70;5.80;;;;;;;;;;5028674;28;20049;-77
2022/03/21 02:05:45;;;;;;;7.40;6.05;;;;;;;;;;5028430;28;20492;-81
2022/03/21 02:08:13;;;;;;;8.25;6.32;;;;;;;;;;5031143;28;20033;-77
2022/03/21 02:10:45;;;;;;;7.03;6.03;;;;;;;;;;5027869;28;20052;-79
2022/03/21 02:13:13;;;;;;;;;;;;;;;;;;5029578;28;20417;-80
2022/03/21 02:15:40;;;;;;;8.77;5.75;;;;;;;;;;5029061;28;20394;-78
2022/03/21 02:18:10;;;;;;;7.90;6.18;;;;;;;;;;5029503;28;20049;-77
2022/03/21 02:20:41;;;;;;;15.52;6.60;;;;;;;;;;5025295;28;20100;-81
2022/03/21 02:23:12;;;;;;;6.97;5.65;;;;;;;;;;5026698;28;20377;-77
2022/03/21 02:25:43;;;;;;;7.47;5.77;;;;;;;;;;5028394;28;20045;-77
2022/03/21 02:28:15;;;;;;;7.82;6.10;;;;;;;;;;5030337;28;20322;-77
2022/03/21 02:30:44;;;;;;;10.52;7.20;;;;;;;;;;5029981;28;20572;-77
2022/03/21 02:33:12;;;;;;;7.32;5.70;;;;;;;;;;5030905;28;20071;-82
2022/03/21 02:35:39;;;;;;;8.50;6.10;;;;;;;;;;5012468;28;20318;-77
2022/03/21 02:38:07;;;;;;;6.85;6.15;;;;;;;;;;5026108;28;20390;-80
2022/03/21 02:40:35;;;;;;;7.10;5.78;;;;;;;;;;5029307;28;20038;-77
2022/03/21 02:43:02;;;;;;;8.80;6.28;;;;;;;;;;4992518;28;20038;-80
2022/03/21 02:45:30;;;;;;;7.05;5.80;;;;;;;;;;5010997;28;20045;-79
2022/03/21 02:47:57;;;;;;;8.10;6.30;;;;;;;;;;5012212;28;20056;-80
2022/03/21 02:50:28;;;;;;;9.63;6.13;;;;;;;;;;5028347;28;20505;-78
2022/03/21 02:52:56;;;;;;;9.23;6.55;;;;;;;;;;5026488;28;20041;-79
2022/03/21 02:55:23;;;;;;;7.97;6.28;;;;;;;;;;5029232;28;20069;-78
2022/03/21 02:57:51;;;;;;;7.28;5.75;;;;;;;;;;5012396;28;20064;-78
2022/03/21 03:00:18;;;;;;;7.45;6.05;;;;;;;;;;5030320;28;20167;-77
2022/03/21 03:02:46;;;;;;;7.82;6.03;;;;;;;;;;5009676;28;20052;-81
2022/03/21 03:05:13;;;;;;;6.78;5.97;;;;;;;;;;5025839;28;20497;-82
2022/03/21 03:07:41;;;;;;;8.88;6.05;;;;;;;;;;5027875;28;20053;-75
2022/03/21 03:10:08;;;;;;;7.18;5.55;;;;;;;;;;5023789;28;20124;-80
2022/03/21 03:12:36;;;;;;;8.00;6.50;;;;;;;;;;5011495;28;20115;-76
2022/03/21 03:15:03;;;;;;;6.95;5.97;;;;;;;;;;5027910;28;20042;-76
2022/03/21 03:17:31;;;;;;;7.38;6.00;;;;;;;;;;5027728;28;20077;-75
2022/03/21 03:19:58;;;;;;;8.65;7.03;;;;;;;;;;4999782;28;20051;-77
2022/03/21 03:22:26;;;;;;;8.48;6.60;;;;;;;;;;5033481;28;20408;-76
2022/03/21 03:24:54;;;;;;;7.45;6.10;;;;;;;;;;5010642;28;20056;-76
2022/03/21 03:27:22;;;;;;;8.02;6.53;;;;;;;;;;5009420;28;20528;-78
2022/03/21 03:29:49;;;;;;;7.25;5.95;;;;;;;;;;5026331;28;20045;-79
2022/03/21 03:32:17;;;;;;;7.47;6.18;;;;;;;;;;5027327;28;20429;-81
2022/03/21 03:34:44;;;;;;;6.88;6.15;;;;;;;;;;5025965;28;20060;-76
2022/03/21 03:37:16;;;;;;;7.38;6.28;;;;;;;;;;5026981;28;20045;-79
2022/03/21 03:39:44;;;;;;;8.93;6.38;;;;;;;;;;5011388;28;20136;-78
2022/03/21 03:42:11;;;;;;;6.35;5.60;;;;;;;;;;5010604;28;20048;-76
2022/03/21 03:44:39;;;;;;;6.68;5.90;;;;;;;;;;5009452;28;20131;-76
2022/03/21 03:47:06;;;;;;;6.63;5.80;;;;;;;;;;5023552;28;20061;-76
2022/03/21 03:49:34;;;;;;;8.90;6.07;;;;;;;;;;5008982;28;20076;-80
2022/03/21 03:52:01;;;;;;;6.65;5.60;;;;;;;;;;5027614;28;20049;-76
2022/03/21 03:54:29;;;;;;;9.95;5.60;;;;;;;;;;5027029;28;20049;-76
2022/03/21 03:56:56;;;;;;;8.63;6.68;;;;;;;;;;5008278;28;20092;-76
2022/03/21 03:59:24;;;;;;;6.68;5.97;;;;;;;;;;5027690;28;20428;-78
2022/03/21 04:01:51;;;;;;;6.90;6.10;;;;;;;;;;5025324;28;20126;-78
2022/03/21 04:04:19;;;;;;;6.97;6.28;;;;;;;;;;5026169;28;20030;-78
2022/03/21 04:06:47;;;;;;;8.35;7.00;;;;;;;;;;5023664;28;20046;-80
2022/03/21 04:09:14;;;;;;;7.72;6.30;;;;;;;;;;5026006;28;20103;-75
2022/03/21 04:11:42;;;;;;;6.65;5.60;;;;;;;;;;5026331;28;20047;-76
2022/03/21 04:14:09;;;;;;;6.47;5.72;;;;;;;;;;5008165;28;20049;-76
2022/03/21 04:16:44;;;;;;;8.40;6.05;;;;;;;;;;5022414;28;20069;-80
2022/03/21 04:19:12;;;;;;;7.15;6.05;;;;;;;;;;5026397;28;20088;-77
2022/03/21 04:21:40;;;;;;;7.78;6.22;;;;;;;;;;4992569;28;20395;-81
2022/03/21 04:24:08;;;;;;;8.07;6.75;;;;;;;;;;4999654;28;20045;-78
2022/03/21 04:26:35;;;;;;;9.05;6.53;;;;;;;;;;5026001;28;20454;-75
2022/03/21 04:29:04;;;;;;;7.78;5.75;;;;;;;;;;5022959;28;20047;-80
2022/03/21 04:31:32;;;;;;;7.18;5.80;;;;;;;;;;5008697;28;20046;-76
2022/03/21 04:34:00;;;;;;;7.78;6.18;;;;;;;;;;5009707;28;20076;-82
2022/03/21 04:36:31;;;;;;;9.10;6.35;;;;;;;;;;5007806;28;20123;-76
2022/03/21 04:38:58;;;;;;;7.32;5.72;;;;;;;;;;5024777;28;20057;-77
2022/03/21 04:41:25;;;;;;;8.63;6.75;;;;;;;;;;5025287;28;20116;-77
2022/03/21 04:43:53;;;;;;;8.30;6.57;;;;;;;;;;5021736;28;20135;-79
2022/03/21 04:46:20;;;;;;;7.00;6.30;;;;;;;;;;5024496;28;20370;-76
2022/03/21 04:48:48;;;;;;;8.77;6.88;;;;;;;;;;5025850;28;20052;-80
2022/03/21 04:51:15;;;;;;;9.55;6.18;;;;;;;;;;5008766;28;20474;-78
2022/03/21 04:53:43;;;;;;;8.93;7.53;;;;;;;;;;5009463;28;20046;-76
2022/03/21 04:56:11;;;;;;;8.85;7.13;;;;;;;;;;5025029;28;20049;-76
2022/03/21 04:58:39;;;;;;;9.57;7.03;;;;;;;;;;5025191;28;20055;-76
2022/03/21 05:01:06;;;;;;;8.23;6.90;;;;;;;;;;5005720;28;20042;-80
2022/03/21 05:03:35;;;;;;;8.45;6.93;;;;;;;;;;5021892;28;20053;-76
2022/03/21 05:06:03;;;;;;;7.30;6.45;;;;;;;;;;5002166;28;20049;-75
2022/03/21 05:08:32;;;;;;;11.07;6.32;;;;;;;;;;5020836;28;20140;-75
2022/03/21 05:10:59;;;;;;;9.35;6.90;;;;;;;;;;5025288;28;20037;-76
2022/03/21 05:13:27;;;;;;;9.82;6.68;;;;;;;;;;5025003;28;20053;-80
2022/03/21 05:15:55;;;;;;;7.65;6.85;;;;;;;;;;5023174;28;20236;-79
2022/03/21 05:18:22;;;;;;;8.50;7.57;;;;;;;;;;5008755;28;20059;-78
2022/03/21 05:20:49;;;;;;;8.23;6.65;;;;;;;;;;4991875;28;20115;-75
2022/03/21 05:31:35;;;;;;;7.88;6.72;;;;;;;;;;5030323;28;20251;-77
2022/03/21 05:36:48;;;;;;;8.13;6.65;;;;;;;;;;5031716;28;20045;-76
2022/03/21 05:39:15;;;;;;;11.82;7.03;;;;;;;;;;5022365;28;20052;-75
2022/03/21 05:41:43;;;;;;;11.85;8.70;;;;;;;;;;5021984;28;20672;-78
2022/03/21 05:44:11;;;;;;;9.60;7.82;;;;;;;;;;5020083;28;20037;-80
2022/03/21 05:46:39;;;;;;;12.10;9.65;;;;;;;;;;5025086;28;20038;-80
2022/03/21 05:49:07;;;;;;;8.85;7.05;;;;;;;;;;5026412;28;20047;-77
2022/03/21 05:51:35;;;;;;;11.20;7.20;;;;;;;;;;5007644;28;20466;-80
2022/03/21 05:54:08;;;;;;;11.00;7.80;;;;;;;;;;5005615;28;20048;-82
2022/03/21 05:56:36;;;;;;;10.57;7.93;;;;;;;;;;5002884;28;20053;-77
2022/03/21 06:01:50;;;;;;;9.52;7.15;;;;;;;;;;5022274;28;20192;-76
2022/03/21 06:04:19;;;;;;;8.15;6.57;;;;;;;;;;5004074;28;20065;-79
2022/03/21 06:06:46;;;;;;;10.50;6.80;;;;;;;;;;5001631;28;20048;-76
2022/03/21 06:09:15;;;;;;;10.23;8.20;;;;;;;;;;5001465;28;20049;-81
2022/03/21 06:11:48;;;;;;;8.88;7.03;;;;;;;;;;5003541;28;20045;-77
2022/03/21 06:14:18;;;;;;;7.65;6.25;;;;;;;;;;5035576;28;20045;-77
2022/03/21 06:16:46;;;;;;;8.90;7.15;;;;;;;;;;5015509;28;20507;-77
2022/03/21 06:19:13;;;;;;;9.02;7.60;;;;;;;;;;4988017;28;20060;-81
2022/03/21 06:21:41;;;;;;;11.32;7.90;;;;;;;;;;5015517;28;20038;-80
2022/03/21 06:24:12;;;;;;;11.32;7.53;;;;;;;;;;5021617;28;20075;-77
2022/03/21 06:26:40;;;;;;;13.57;9.07;;;;;;;;;;5021767;28;20079;-78
2022/03/21 06:29:08;;;;;;;13.73;8.63;;;;;;;;;;4987246;28;20148;-79
2022/03/21 06:31:36;;;;;;;13.05;8.70;;;;;;;;;;5005502;28;20142;-77
2022/03/21 06:34:03;;;;;;;10.93;9.02;;;;;;;;;;5023602;28;20045;-81
2022/03/21 06:36:31;;;;;;;13.07;9.45;;;;;;;;;;5023762;28;20520;-80
2022/03/21 06:38:58;;;;;;;12.10;8.82;;;;;;;;;;5007686;28;20057;-81
2022/03/21 06:41:26;;;;;;;11.30;8.82;;;;;;;;;;5004193;28;20054;-78
2022/03/21 06:43:53;;;;;;;13.38;8.20;;;;;;;;;;5010490;28;20069;-79
2022/03/21 06:46:21;;;;;;;8.52;7.03;;;;;;;;;;4994069;28;20049;-80
2022/03/21 06:48:49;;;;;;;10.27;8.25;;;;;;;;;;5009945;28;21504;-79
2022/03/21 06:51:16;;;;;;;14.30;8.57;;;;;;;;;;5025022;28;20068;-77
2022/03/21 06:53:44;;;;;;;9.63;8.13;;;;;;;;;;5025892;28;20153;-77
2022/03/21 06:56:12;;;;;;;9.88;8.55;;;;;;;;;;5015728;28;20049;-79
2022/03/21 06:58:39;;;;;;;11.38;9.60;;;;;;;;;;5009812;28;20136;-79
2022/03/21 07:01:06;;;;;;;11.85;8.93;;;;;;;;;;5021335;28;20037;-81
2022/03/21 07:03:34;;;;;;;12.20;8.65;;;;;;;;;;5027024;28;20458;-80
2022/03/21 07:06:02;;;;;;;11.48;8.85;;;;;;;;;;5022386;28;20065;-80
2022/03/21 07:08:30;;;;;;;11.90;8.77;;;;;;;;;;5029048;28;20050;-77
2022/03/21 07:10:58;;;;;;;11.18;8.80;;;;;;;;;;5024524;28;20048;-77
2022/03/21 07:13:29;;;;;;;10.82;8.60;;;;;;;;;;5023934;28;20099;-80
2022/03/21 07:15:57;;;;;;;10.02;8.30;;;;;;;;;;5001445;28;20132;-80
2022/03/21 07:18:25;;;;;;;9.13;7.68;;;;;;;;;;5007943;28;20052;-81
2022/03/21 07:20:53;;;;;;;9.25;7.75;;;;;;;;;;5004584;28;20065;-76
2022/03/21 07:23:20;;;;;;;7.85;7.05;;;;;;;;;;5009432;28;20050;-76
2022/03/21 07:25:49;;;;;;;9.65;7.60;;;;;;;;;;5007617;28;20044;-77
2022/03/21 07:28:16;;;;;;;8.68;7.28;;;;;;;;;;5021277;28;20038;-79
2022/03/21 07:30:44;;;;;;;11.77;8.05;;;;;;;;;;4993218;28;20043;-81
2022/03/21 07:33:12;;;;;;;10.32;7.75;;;;;;;;;;5009310;28;20398;-76
2022/03/21 07:35:41;;;;;;;12.95;8.00;;;;;;;;;;5023212;28;20132;-77
2022/03/21 07:38:09;;;;;;;12.65;8.13;;;;;;;;;;5028472;28;20164;-76
2022/03/21 07:40:36;;;;;;;9.93;7.70;;;;;;;;;;5008549;28;20072;-77
2022/03/21 07:43:04;;;;;;;10.02;7.43;;;;;;;;;;5025274;28;20505;-76
2022/03/21 07:48:18;;;;;;;9.20;7.90;;;;;;;;;;5028428;28;20075;-77
2022/03/21 07:50:45;;;;;;;10.18;7.85;;;;;;;;;;5010956;28;20069;-80
2022/03/21 07:53:12;;;;;;;9.15;8.13;;;;;;;;;;5008820;28;20095;-77
2022/03/21 07:55:40;;;;;;;9.10;7.68;;;;;;;;;;5011112;28;20045;-77
2022/03/21 07:58:07;;;;;;;11.23;7.63;;;;;;;;;;5009062;28;20563;-79
2022/03/21 08:00:35;;;;;;;10.48;7.88;;;;;;;;;;5009845;28;20716;-77
2022/03/21 08:03:03;;;;;;;13.30;8.43;;;;;;;;;;5007706;28;20045;-78
2022/03/21 08:05:31;;;;;;;8.57;6.93;;;;;;;;;;4987802;28;20076;-76
2022/03/21 08:07:58;;;;;;;9.23;7.30;;;;;;;;;;5026103;28;20060;-78
2022/03/21 08:10:29;;;;;;;11.05;7.45;;;;;;;;;;5027240;28;20482;-76
2022/03/21 08:12:57;;;;;;;15.85;7.82;;;;;;;;;;5009690;28;20405;-79
2022/03/21 08:15:26;;;;;;;8.80;7.15;;;;;;;;;;5009359;28;20053;-78
2022/03/21 08:17:57;;;;;;;8.70;6.88;;;;;;;;;;5024727;28;20071;-78
2022/03/21 08:20:26;;;;;;;9.40;7.00;;;;;;;;;;5029929;28;20041;-79
2022/03/21 08:22:53;;;;;;;8.30;5.88;;;;;;;;;;5008467;28;20068;-78
2022/03/21 08:25:21;;;;;;;8.20;5.90;;;;;;;;;;5040851;28;20045;-80
2022/03/21 08:27:49;;;;;;;7.40;5.80;;;;;;;;;;5008528;28;20041;-76
2022/03/21 08:30:18;;;;;;;7.97;5.80;;;;;;;;;;5006779;28;20448;-76
2022/03/21 08:32:46;;;;;;;10.93;6.18;;;;;;;;;;5008247;28;20045;-77
2022/03/21 08:35:13;;;;;;;5.82;5.00;;;;;;;;;;5026040;28;20115;-76
2022/03/21 08:37:41;;;;;;;7.50;6.05;;;;;;;;;;5027109;28;20048;-76
2022/03/21 08:40:09;;;;;;;7.43;6.32;;;;;;;;;;5022308;28;20055;-78
2022/03/21 08:42:37;;;;;;;6.50;5.90;;;;;;;;;;5026855;28;20531;-77
2022/03/21 08:45:05;;;;;;;8.27;6.10;;;;;;;;;;5024912;28;20048;-79
2022/03/21 08:47:34;;;;;;;7.00;5.53;;;;;;;;;;5020000;28;20038;-76
2022/03/21 08:50:02;;;;;;;6.05;4.95;;;;;;;;;;5026691;28;20033;-78
2022/03/21 08:52:30;;;;;;;6.75;4.95;;;;;;;;;;5011344;28;20056;-77
2022/03/21 08:54:58;;;;;;;6.28;5.10;;;;;;;;;;5026184;28;20565;-76
2022/03/21 08:57:25;;;;;;;5.68;4.95;;;;;;;;;;5025457;28;20045;-79
2022/03/21 08:59:53;;;;;;;5.68;5.18;;;;;;;;;;5024806;28;20045;-77
2022/03/21 09:02:20;;;;;;;5.95;5.35;;;;;;;;;;5026376;28;20041;-77
2022/03/21 09:04:48;;;;;;;6.20;5.38;;;;;;;;;;5010635;28;20046;-77
2022/03/21 09:07:16;;;;;;;5.60;5.10;;;;;;;;;;5010264;28;20065;-80
2022/03/21 09:09:43;;;;;;;5.68;5.07;;;;;;;;;;5010602;28;20490;-77
2022/03/21 09:12:11;;;;;;;5.82;5.30;;;;;;;;;;5020065;28;20056;-77
2022/03/21 09:14:39;;;;;;;5.68;4.88;;;;;;;;;;5008996;28;20045;-78
2022/03/21 09:17:06;;;;;;;5.45;5.03;;;;;;;;;;5024754;28;20046;-80
2022/03/21 09:19:34;;;;;;;5.47;5.07;;;;;;;;;;4992376;28;20053;-76
2022/03/21 09:22:01;;;;;;;7.03;4.80;;;;;;;;;;5023856;28;20038;-79
2022/03/21 09:24:30;;;;;;;5.70;4.82;;;;;;;;;;5024757;28;20111;-79
2022/03/21 09:26:57;;;;;;;5.80;4.95;;;;;;;;;;5008523;28;20053;-77
2022/03/21 09:29:25;;;;;;;5.55;5.00;;;;;;;;;;5025927;28;20422;-80
2022/03/21 09:31:52;;;;;;;5.90;4.20;;;;;;;;;;4993152;28;20061;-79
2022/03/21 09:34:20;;;;;;;5.22;4.32;;;;;;;;;;5025475;28;20041;-78
2022/03/21 09:36:48;;;;;;;5.30;4.07;;;;;;;;;;5031222;28;20041;-79
2022/03/21 09:39:15;;;;;;;6.05;4.07;;;;;;;;;;5025298;28;20084;-80
2022/03/21 09:41:44;;;;;;;6.30;5.20;;;;;;;;;;5023693;28;20057;-79
2022/03/21 09:44:12;;;;;;;4.68;4.20;;;;;;;;;;5024891;28;20501;-78
2022/03/21 09:46:44;;;;;;;6.45;3.97;;;;;;;;;;5009322;28;20044;-77
2022/03/21 09:49:15;;;;;;;5.32;4.20;;;;;;;;;;5026938;28;20044;-80
2022/03/21 09:51:43;;;;;;;4.20;3.80;;;;;;;;;;5026027;28;20042;-78
2022/03/21 09:54:10;;;;;;;4.22;3.85;;;;;;;;;;5025205;28;20049;-80
2022/03/21 09:56:38;;;;;;;3.85;3.55;;;;;;;;;;5025138;28;20130;-76
2022/03/21 09:59:05;;;;;;;3.80;3.50;;;;;;;;;;5024376;28;20120;-77
2022/03/21 10:01:36;;;;;;;4.90;3.80;;;;;;;;;;5007300;28;20045;-85
2022/03/21 10:04:06;;;;;;;3.97;3.70;;;;;;;;;;4991836;28;20489;-76
2022/03/21 10:06:40;;;;;;;3.90;3.60;;;;;;;;;;5024947;28;20049;-79
2022/03/21 10:09:12;;;;;;;4.97;4.10;;;;;;;;;;5027876;28;20401;-76
2022/03/21 10:11:40;;;;;;;;;;;;;;;;;;4989861;23;20516;-84
2022/03/21 10:14:26;;;;;;;4.35;3.95;;;;;;;;;;4992761;28;19948;-85
2022/03/21 10:16:55;;;;;;;4.80;4.00;;;;;;;;;;5007805;28;20061;-85
2022/03/21 10:19:23;;;;;;;4.43;4.00;;;;;;;;;;4994181;28;20118;-85
2022/03/21 10:22:01;;;;;;;6.07;4.53;;;;;;;;;;5001737;28;20081;-86
2022/03/21 10:24:33;;;;;;;4.80;4.15;;;;;;;;;;4982370;28;20073;-86
2022/03/21 10:27:02;;;;;;;4.63;4.22;;;;;;;;;;4977956;28;20483;-87
2022/03/21 10:29:50;;;;;;;4.30;3.90;;;;;;;;;;4993681;28;20038;-86
2022/03/21 10:32:30;;;;;;;4.00;3.70;;;;;;;;;;4991180;28;20042;-86
2022/03/21 10:35:01;;;;;;;4.95;4.22;;;;;;;;;;4993106;28;20034;-86
2022/03/21 10:37:40;;;;;;;4.50;4.10;;;;;;;;;;4990912;28;20054;-86
2022/03/21 10:40:16;;;;;;;5.13;4.28;;;;;;;;;;4972698;28;20042;-85
2022/03/21 10:42:52;;;;;;;4.28;3.88;;;;;;;;;;4991901;28;20484;-84
2022/03/21 10:45:20;;;;;;;4.53;4.10;;;;;;;;;;5009347;28;20073;-85
2022/03/21 10:47:48;;;;;;;9.93;4.22;;;;;;;;;;4977032;28;20489;-85
2022/03/21 10:50:28;;;;;;;4.35;3.95;;;;;;;;;;4993377;28;20523;-86
2022/03/21 10:53:06;;;;;;;5.47;4.05;;;;;;;;;;4992671;28;20056;-86
2022/03/21 10:55:34;;;;;;;6.18;3.92;;;;;;;;;;4989724;28;20461;-84
2022/03/21 10:58:02;;;;;;;4.85;3.67;;;;;;;;;;4983150;28;20456;-88
2022/03/21 11:00:30;;;;;;;4.57;4.18;;;;;;;;;;4989558;28;20136;-85
2022/03/21 11:03:00;;;;;;;9.20;4.20;;;;;;;;;;4986440;28;20070;-85
2022/03/21 11:05:30;;;;;;;5.38;4.50;;;;;;;;;;4995312;28;20133;-84
2022/03/21 11:07:57;;;;;;;5.05;4.60;;;;;;;;;;4985234;28;20139;-84
2022/03/21 11:10:28;;;;;;;5.18;4.45;;;;;;;;;;4988172;28;20137;-85
2022/03/21 11:12:56;;;;;;;4.95;4.30;;;;;;;;;;4975336;28;20149;-84
2022/03/21 11:15:26;;;;;;;7.00;4.72;;;;;;;;;;4976242;28;20064;-85
2022/03/21 11:17:55;;;;;;;4.82;4.32;;;;;;;;;;5009595;28;20093;-87
2022/03/21 11:20:25;;;;;;;4.68;4.28;;;;;;;;;;4994856;28;20050;-86
2022/03/21 11:22:55;;;;;;;5.03;4.55;;;;;;;;;;4993280;28;20086;-85
2022/03/21 11:25:24;;;;;;;7.00;3.88;;;;;;;;;;4993219;28;20926;-85
2022/03/21 11:28:10;;;;;;;7.97;4.70;;;;;;;;;;4989976;28;20039;-84
2022/03/21 11:30:49;;;;;;;4.22;3.88;;;;;;;;;;4992179;28;20480;-87
2022/03/21 11:33:30;;;;;;;5.15;4.05;;;;;;;;;;4961851;28;20050;-86
2022/03/21 11:36:05;;;;;;;5.32;4.68;;;;;;;;;;4992704;28;20042;-85
2022/03/21 11:38:48;;;;;;;4.78;4.00;;;;;;;;;;4994484;28;20050;-87
2022/03/21 11:41:23;;;;;;;4.78;4.28;;;;;;;;;;4978732;28;20046;-86
2022/03/21 11:44:05;;;;;;;4.47;4.07;;;;;;;;;;4991738;28;20045;-85
2022/03/21 11:46:39;;;;;;;7.40;4.80;;;;;;;;;;4988014;28;20053;-87
2022/03/21 11:49:19;;;;;;;4.78;4.35;;;;;;;;;;5018234;28;20131;-76
2022/03/21 11:51:57;;;;;;;4.65;4.15;;;;;;;;;;5026741;28;20064;-77
2022/03/21 11:54:34;;;;;;;5.97;4.43;;;;;;;;;;5028753;28;20436;-76
2022/03/21 11:57:05;;;;;;;5.28;4.78;;;;;;;;;;5015057;28;20077;-77
2022/03/21 11:59:33;;;;;;;6.45;5.00;;;;;;;;;;5021496;28;20064;-78
2022/03/21 12:02:16;;;;;;;5.47;4.95;;;;;;;;;;5014766;28;20049;-76
2022/03/21 12:04:56;;;;;;;5.13;4.70;;;;;;;;;;5014128;28;20116;-77
2022/03/21 12:07:24;;;;;;;7.18;4.90;;;;;;;;;;5015885;28;20045;-75
2022/03/21 12:09:52;;;;;;;11.73;5.38;;;;;;;;;;5015812;28;20548;-75
2022/03/21 12:12:22;;;;;;;5.07;4.40;;;;;;;;;;5017233;28;20122;-75
2022/03/21 12:14:58;;;;;;;4.78;4.30;;;;;;;;;;5006059;28;20072;-76
2022/03/21 12:17:26;;;;;;;5.00;4.50;;;;;;;;;;5001809;28;20084;-75
2022/03/21 12:20:03;;;;;;;6.00;4.32;;;;;;;;;;5016629;28;20120;-75
2022/03/21 12:22:52;;;;;;;8.80;4.70;;;;;;;;;;5011922;28;20171;-75
2022/03/21 12:25:21;;;;;;;8.15;4.43;;;;;;;;;;5014511;28;20045;-76
2022/03/21 12:27:52;;;;;;;5.37;4.63;;;;;;;;;;5009973;28;20046;-76
2022/03/21 12:30:32;;;;;;;4.45;4.05;;;;;;;;;;5004572;28;20084;-75
2022/03/21 12:33:15;;;;;;;5.00;4.50;;;;;;;;;;5010749;28;20050;-76
2022/03/21 12:35:45;;;;;;;4.20;3.88;;;;;;;;;;5014267;28;20038;-74
2022/03/21 12:38:24;;;;;;;4.50;4.10;;;;;;;;;;5014212;28;20045;-77
2022/03/21 12:40:53;;;;;;;4.70;4.30;;;;;;;;;;5014939;28;20052;-77
2022/03/21 12:43:22;;;;;;;5.20;4.70;;;;;;;;;;5019649;28;20134;-76
2022/03/21 12:45:50;;;;;;;5.28;4.50;;;;;;;;;;5007976;28;20128;-75
2022/03/21 12:48:18;;;;;;;6.35;4.75;;;;;;;;;;5003996;28;20494;-77
2022/03/21 12:50:49;;;;;;;4.70;4.32;;;;;;;;;;5010474;28;20040;-77
2022/03/21 12:53:21;;;;;;;4.78;4.20;;;;;;;;;;5014070;28;20042;-75
2022/03/21 12:55:48;;;;;;;;;;;;;;;;;;5013717;28;20065;-77
2022/03/21 12:58:16;;;;;;;4.90;4.30;;;;;;;;;;5022947;28;20017;-74
2022/03/21 13:00:44;;;;;;;5.32;4.78;;;;;;;;;;5022019;28;20056;-75
2022/03/21 13:03:12;;;;;;;7.72;4.88;;;;;;;;;;5013420;28;20038;-75
2022/03/21 13:11:22;;;;;;;7.25;4.90;;;;;;;;;;4995888;28;20069;-76
2022/03/21 13:13:53;;;;;;;6.70;4.80;;;;;;;;;;5027406;28;20533;-77
2022/03/21 13:16:21;;;;;;;5.63;4.75;;;;;;;;;;5023007;28;20474;-75
2022/03/21 13:18:50;;;;;;;7.65;4.82;;;;;;;;;;5013349;28;20050;-77
2022/03/21 13:21:19;;;;;;;5.70;4.55;;;;;;;;;;5005565;28;20057;-77
2022/03/21 13:23:47;;;;;;;5.38;4.40;;;;;;;;;;5021112;28;20053;-76
2022/03/21 13:26:16;;;;;;;4.45;4.05;;;;;;;;;;5024557;28;20037;-76
2022/03/21 13:28:44;;;;;;;5.60;4.57;;;;;;;;;;5024889;28;20485;-74
2022/03/21 13:31:19;;;;;;;4.50;4.10;;;;;;;;;;5015697;28;20120;-77
2022/03/21 13:33:55;;;;;;;4.82;4.32;;;;;;;;;;5005877;28;20206;-76
2022/03/21 13:36:23;;;;;;;6.80;4.22;;;;;;;;;;5007192;28;20912;-77
2022/03/21 13:39:07;;;;;;;4.88;3.92;;;;;;;;;;5014065;28;20049;-75
2022/03/21 13:41:51;;;;;;;11.15;4.35;;;;;;;;;;5008253;28;20038;-76
2022/03/21 13:44:19;;;;;;;4.97;4.13;;;;;;;;;;5015519;28;20041;-76
2022/03/21 13:47:07;;;;;;;5.63;5.00;;;;;;;;;;5022117;28;20056;-78
2022/03/21 13:49:45;;;;;;;5.20;4.70;;;;;;;;;;5008344;28;20401;-76
2022/03/21 13:52:14;;;;;;;4.78;3.78;;;;;;;;;;4998843;28;20403;-75
2022/03/21 13:54:51;;;;;;;5.10;4.43;;;;;;;;;;5021361;28;20045;-77
2022/03/21 13:57:19;;;;;;;6.82;5.03;;;;;;;;;;5015742;28;20069;-76
2022/03/21 14:00:10;;;;;;;4.38;3.67;;;;;;;;;;5023197;28;20053;-76
2022/03/21 14:02:49;;;;;;;4.88;4.07;;;;;;;;;;5020796;28;20138;-78
2022/03/21 14:05:26;;;;;;;5.13;4.43;;;;;;;;;;4988637;28;20041;-78
2022/03/21 14:08:20;;;;;;;5.03;4.53;;;;;;;;;;4988210;28;20104;-77
2022/03/21 14:10:49;;;;;;;5.22;4.22;;;;;;;;;;4999614;28;20038;-76
2022/03/21 14:13:19;;;;;;;5.00;4.60;;;;;;;;;;5004783;28;20069;-76
2022/03/21 14:15:54;;;;;;;6.80;4.38;;;;;;;;;;5015350;28;20045;-76
2022/03/21 14:18:36;;;;;;;6.35;5.03;;;;;;;;;;4980173;28;20597;-76
2022/03/21 14:21:11;;;;;;;5.53;4.32;;;;;;;;;;5011082;28;20044;-77
2022/03/21 14:23:50;;;;;;;5.38;4.80;;;;;;;;;;5016745;28;20496;-77
2022/03/21 14:26:34;;;;;;;5.20;4.70;;;;;;;;;;5012982;28;20057;-76
2022/03/21 14:29:06;;;;;;;5.15;4.65;;;;;;;;;;4996902;28;20053;-76
2022/03/21 14:31:48;;;;;;;6.22;5.63;;;;;;;;;;5008641;28;20068;-78
2022/03/21 14:34:26;;;;;;;5.45;4.95;;;;;;;;;;4999440;28;20140;-76
2022/03/21 14:36:54;;;;;;;4.95;4.55;;;;;;;;;;5017754;28;20073;-76
2022/03/21 14:39:21;;;;;;;6.30;4.80;;;;;;;;;;5014731;28;20069;-76
2022/03/21 14:41:49;;;;;;;6.65;5.28;;;;;;;;;;5013277;28;20671;-77
2022/03/21 14:44:18;;;;;;;4.97;4.50;;;;;;;;;;5012323;28;20050;-75
2022/03/21 14:46:47;;;;;;;5.57;5.07;;;;;;;;;;5017951;28;20096;-77
2022/03/21 14:49:15;;;;;;;5.55;5.05;;;;;;;;;;4998782;28;20088;-78
2022/03/21 14:51:43;;;;;;;5.97;4.70;;;;;;;;;;5010610;28;20042;-75
2022/03/21 14:54:11;;;;;;;5.70;5.22;;;;;;;;;;4997016;28;20054;-78
2022/03/21 14:56:39;;;;;;;5.30;4.80;;;;;;;;;;5014291;28;20141;-78
2022/03/21 14:59:07;;;;;;;5.30;4.80;;;;;;;;;;5015461;28;20057;-77
2022/03/21 15:01:35;;;;;;;5.38;4.88;;;;;;;;;;5013736;28;20088;-76
2022/03/21 15:04:02;;;;;;;5.00;4.60;;;;;;;;;;5015233;28;20042;-74
2022/03/21 15:06:30;;;;;;;5.25;4.75;;;;;;;;;;5007585;28;20057;-76
2022/03/21 15:08:58;;;;;;;6.43;5.28;;;;;;;;;;5017115;28;20049;-78
2022/03/21 15:11:25;;;;;;;6.03;5.43;;;;;;;;;;5011262;28;20088;-73
2022/03/21 15:13:53;;;;;;;6.50;4.85;;;;;;;;;;5033170;28;20153;-76
2022/03/21 15:16:20;;;;;;;5.18;4.70;;;;;;;;;;5021095;28;20044;-73
2022/03/21 15:18:48;;;;;;;5.20;4.70;;;;;;;;;;5016100;28;20038;-75
2022/03/21 15:21:17;;;;;;;6.18;4.40;;;;;;;;;;5015795;28;20037;-76
2022/03/21 15:23:48;;;;;;;7.75;5.15;;;;;;;;;;5011077;28;20041;-75